Weather reports worldwide

Advertisment
Salsburgh, United Kingdom (99024): temperature & dewpoint: 17.01.2019 02:00:00 - 23.01.2019 02:00:00 (GMT)Salsburgh, United Kingdom (99024): wind speed & gusts: 17.01.2019 02:00:00 - 23.01.2019 02:00:00 (GMT)Salsburgh, United Kingdom (99024): wind direction: 17.01.2019 02:00:00 - 23.01.2019 02:00:00 (GMT)Salsburgh, United Kingdom (99024): precipitation: 17.01.2019 02:00:00 - 23.01.2019 02:00:00 (GMT)
Date & Time tt [°C] td [°C] ff [km/h] ff [kn] fx [km/h] fx [kn] dd rr [mm]
23.01.2019 02:00:00 - - - - - - - -
23.01.2019 01:00:00 -3,2 -3,2 0 0 - - N 0,0
23.01.2019 00:00:00 -2,7 -2,7 0 0 - - N 0,0
22.01.2019 23:00:00 -2,4 -2,4 0 0 - - N 0,0
22.01.2019 22:00:00 -2,1 -2,1 0 0 - - N 0,0
22.01.2019 21:00:00 -2,7 -2,8 0 0 - - N 0,0
22.01.2019 20:00:00 -2,1 -2,1 0 0 - - N 0,0
22.01.2019 19:00:00 -2,5 -2,5 0 0 - - N 0,0
22.01.2019 18:00:00 -1,1 -1,1 0 0 - - N 0,0
22.01.2019 17:00:00 -0,9 -0,9 0 0 - - N 0,0
22.01.2019 16:00:00 -0,3 -0,3 0 0 - - N 1,0
22.01.2019 15:00:00 -0,1 -0,1 4 2 - - W 0,0
22.01.2019 14:00:00 -0,2 -0,2 0 0 - - N 0,0
22.01.2019 13:00:00 -0,3 -0,3 0 0 - - N 0,0
22.01.2019 12:00:00 -0,4 -0,4 0 0 - - N 0,0
22.01.2019 11:00:00 -0,4 -0,4 0 0 - - N 0,0
22.01.2019 10:00:00 -0,5 -0,5 0 0 - - N 0,0
22.01.2019 09:00:00 -0,6 -0,6 0 0 - - N 0,0
22.01.2019 08:00:00 -0,7 -0,7 0 0 - - N 0,0
22.01.2019 07:00:00 -1,0 -1,0 0 0 - - N 0,0
22.01.2019 06:00:00 -0,9 -0,9 0 0 - - N 0,0
22.01.2019 05:00:00 -0,8 -0,8 0 0 - - N 0,0
22.01.2019 04:00:00 -0,5 -0,5 0 0 - - N 0,0
22.01.2019 03:00:00 -0,4 -0,4 0 0 - - N 0,0
22.01.2019 02:00:00 0,0 0,0 13 7 - - SSW 0,0
22.01.2019 01:00:00 0,1 0,1 13 7 - - SSW 0,0
22.01.2019 00:00:00 0,3 0,3 18 10 - - SW 0,0
21.01.2019 23:00:00 0,6 0,6 11 6 - - WSW 0,2
21.01.2019 22:00:00 1,0 0,9 26 14 46 25 W 0,6
21.01.2019 21:00:00 1,6 1,6 31 17 48 26 S 0,6
21.01.2019 20:00:00 1,7 1,5 39 21 55 30 S 0,8
21.01.2019 19:00:00 1,9 1,6 42 23 61 33 S 0,8
21.01.2019 18:00:00 2,0 1,4 44 24 61 33 S 0,2
21.01.2019 17:00:00 2,1 0,6 34 18 50 27 S 0,0
21.01.2019 16:00:00 2,1 0,3 26 14 - - S 0,0
21.01.2019 15:00:00 1,9 0,3 28 15 - - S 0,0
21.01.2019 14:00:00 1,8 0,0 28 15 - - S 0,0
21.01.2019 13:00:00 1,4 0,4 26 14 - - S 0,0
21.01.2019 12:00:00 0,7 0,0 31 17 - - S 0,0
21.01.2019 11:00:00 1,0 -0,2 28 15 - - S 0,0
21.01.2019 10:00:00 0,8 -0,3 24 13 - - S 0,0
21.01.2019 09:00:00 0,5 -0,5 26 14 - - S 0,0
21.01.2019 08:00:00 0,2 -1,0 24 13 - - S 0,0
21.01.2019 07:00:00 -0,6 -1,7 15 8 - - S 0,0
21.01.2019 06:00:00 -1,2 -2,2 15 8 - - S 0,0
21.01.2019 05:00:00 -0,9 -2,1 15 8 - - S 0,0
21.01.2019 04:00:00 -1,2 -2,4 13 7 - - SSE 0,0
21.01.2019 03:00:00 -1,0 -2,0 13 7 - - S 0,0
21.01.2019 02:00:00 -1,8 -2,5 13 7 - - SSE 0,0
21.01.2019 01:00:00 -0,4 -1,2 5 3 - - S 0,0
21.01.2019 00:00:00 0,2 -1,0 8 4 - - W 0,0
20.01.2019 23:00:00 -1,1 -2,2 8 4 - - S 0,0
20.01.2019 22:00:00 -0,6 -1,6 8 4 - - S 0,0
20.01.2019 21:00:00 -0,2 -0,9 8 4 - - S 0,0
20.01.2019 20:00:00 0,5 -0,3 11 6 - - W 0,0
20.01.2019 19:00:00 0,5 -1,1 8 4 - - WSW 0,0
20.01.2019 18:00:00 0,8 -0,5 11 6 - - NW 0,0
20.01.2019 17:00:00 2,0 2,0 9 5 - - W 0,0
20.01.2019 16:00:00 2,0 2,0 9 5 - - W 0,0
20.01.2019 15:00:00 2,5 2,5 13 7 - - W 0,0
20.01.2019 14:00:00 2,2 2,2 13 7 - - W 0,0
20.01.2019 13:00:00 1,7 1,7 15 8 - - W 0,0
20.01.2019 12:00:00 1,2 1,2 13 7 - - SW 0,0
20.01.2019 11:00:00 0,6 0,6 11 6 - - SSW 0,0
20.01.2019 10:00:00 0,3 0,3 11 6 - - SW 0,0
20.01.2019 09:00:00 0,1 0,1 15 8 - - SW 0,0
20.01.2019 08:00:00 0,1 0,1 13 7 - - SW 0,0
20.01.2019 07:00:00 -0,1 -0,1 9 5 - - WSW 0,0
20.01.2019 06:00:00 0,0 0,0 9 5 - - WSW 0,0
20.01.2019 05:00:00 -0,1 -0,1 5 3 - - SW 0,0
20.01.2019 04:00:00 -0,1 -0,2 4 2 - - SW 0,0
20.01.2019 03:00:00 0,0 -0,1 2 1 - - S 0,0
20.01.2019 02:00:00 -0,1 -0,2 5 3 - - S 0,0
20.01.2019 01:00:00 0,0 -0,2 4 2 - - SSE 0,0
20.01.2019 00:00:00 0,1 -0,2 4 2 - - SE 0,0
19.01.2019 23:00:00 0,4 0,1 2 1 - - ENE 0,0
19.01.2019 22:00:00 0,2 0,1 4 2 - - ESE 0,0
19.01.2019 21:00:00 0,3 0,1 4 2 - - SE 0,0
19.01.2019 20:00:00 0,4 0,0 5 3 - - SE 0,0
19.01.2019 19:00:00 0,7 0,1 4 2 - - ENE 0,0
19.01.2019 18:00:00 0,8 0,2 4 2 - - ENE 0,0
19.01.2019 17:00:00 0,7 0,1 8 4 - - ENE 0,0
19.01.2019 16:00:00 0,7 0,1 9 5 - - NE 0,0
19.01.2019 15:00:00 0,8 0,4 8 4 - - ENE 0,0
19.01.2019 14:00:00 0,8 0,6 9 5 - - E 0,0
19.01.2019 13:00:00 0,8 0,8 4 2 - - ESE 0,0
19.01.2019 12:00:00 0,5 0,5 8 4 - - E 0,2
19.01.2019 11:00:00 0,3 0,3 9 5 - - ENE 0,0
19.01.2019 10:00:00 -0,2 -0,2 9 5 - - ENE 0,0
19.01.2019 09:00:00 -0,7 -0,7 16 9 - - ENE 0,0
19.01.2019 08:00:00 -0,7 -0,7 16 9 - - E 0,0
19.01.2019 07:00:00 -0,6 -0,7 16 9 - - E 0,0
19.01.2019 06:00:00 -0,6 -0,8 11 6 - - ENE 0,0
19.01.2019 05:00:00 0,0 -0,4 16 9 - - E 0,0
19.01.2019 04:00:00 0,4 0,0 15 8 - - E 0,2
19.01.2019 03:00:00 0,5 0,2 18 10 - - E 0,0
19.01.2019 02:00:00 0,1 -0,1 13 7 - - ENE 0,0
19.01.2019 01:00:00 -0,1 -0,3 15 8 - - ENE 0,0
19.01.2019 00:00:00 0,1 -0,2 15 8 - - E 0,0
18.01.2019 23:00:00 0,2 0,0 13 7 - - ENE 0,0
18.01.2019 22:00:00 0,1 0,0 16 9 - - E 0,0
18.01.2019 21:00:00 0,2 -0,1 13 7 - - ENE 0,0
18.01.2019 20:00:00 0,2 -0,9 13 7 - - ENE 0,0
18.01.2019 19:00:00 0,5 -1,8 13 7 - - ENE 0,0
18.01.2019 18:00:00 0,5 -2,3 15 8 - - ENE 0,0
18.01.2019 17:00:00 0,4 -3,2 16 9 - - E 0,0
18.01.2019 16:00:00 0,8 -3,4 13 7 - - ENE 0,0
18.01.2019 15:00:00 0,9 -3,2 13 7 - - E 0,0
18.01.2019 14:00:00 1,1 -3,4 11 6 - - ENE 0,0
18.01.2019 13:00:00 2,0 -4,4 15 8 - - ESE 0,0
18.01.2019 12:00:00 0,2 -4,6 16 9 - - E 0,0
18.01.2019 11:00:00 -0,3 -5,4 16 9 - - E 0,0
18.01.2019 10:00:00 -1,1 -5,5 15 8 - - E 0,0
18.01.2019 09:00:00 -1,5 -5,6 22 12 - - SE 0,0
18.01.2019 08:00:00 -1,0 -4,8 21 11 - - SE 0,0
18.01.2019 07:00:00 -0,8 -4,6 26 14 - - SSE 0,0
18.01.2019 06:00:00 -0,8 -4,5 28 15 - - SE 0,0
18.01.2019 05:00:00 -1,5 -4,2 24 13 - - SSE 0,0
18.01.2019 04:00:00 -2,2 -4,5 5 3 - - S 0,0
18.01.2019 03:00:00 -1,0 -4,3 22 12 - - SE 0,0
18.01.2019 02:00:00 -0,8 -4,5 21 11 - - SE 0,0
18.01.2019 01:00:00 -1,0 -4,4 21 11 - - SE 0,0
18.01.2019 00:00:00 -0,7 -4,4 13 7 - - SE 0,0
17.01.2019 23:00:00 -0,7 -3,8 9 5 - - SE 0,0
17.01.2019 22:00:00 -1,2 -3,8 13 7 - - SSE 0,0
17.01.2019 21:00:00 -0,7 -3,7 5 3 - - S 0,0
17.01.2019 20:00:00 -0,8 -3,6 5 3 - - S 0,0
17.01.2019 19:00:00 -1,2 -3,6 8 4 - - S 0,0
17.01.2019 18:00:00 -0,1 -3,4 4 2 - - WSW 0,0
17.01.2019 17:00:00 -0,1 -3,5 9 5 - - WNW 0,0
17.01.2019 16:00:00 0,4 -3,3 8 4 - - W 0,0
17.01.2019 15:00:00 2,1 -3,5 15 8 - - WNW 0,0
17.01.2019 14:00:00 2,4 -3,2 13 7 - - W 0,0
17.01.2019 13:00:00 2,6 -3,2 9 5 - - W 0,0
17.01.2019 12:00:00 2,0 -3,2 18 10 - - NNW 0,0
17.01.2019 11:00:00 0,8 -3,6 18 10 - - NW 0,0
17.01.2019 10:00:00 -0,9 -3,9 16 9 - - WNW 0,0
17.01.2019 09:00:00 -1,9 -4,0 8 4 - - W 0,0
17.01.2019 08:00:00 -2,4 -4,7 9 5 - - WSW 0,0
17.01.2019 07:00:00 -2,5 -4,6 11 6 - - W 0,0
17.01.2019 06:00:00 -1,8 -5,2 26 14 - - WNW 0,0
17.01.2019 05:00:00 -2,4 -6,1 18 10 - - WNW 0,0
17.01.2019 04:00:00 -1,6 -5,9 21 11 - - WNW 0,0
17.01.2019 03:00:00 -1,8 -5,5 22 12 - - NNW 0,0
17.01.2019 02:00:00 -2,4 -5,8 16 9 - - NNW 0,0

tt = temperature
td = dewpoint
ff = wind speed
fx = gusts
dd = wind direction
rr = precipitation

Next stations